createdAt,value
2016-05-10T00:00:50.017Z,0
2016-05-10T00:01:50.004Z,0
2016-05-10T00:02:50.007Z,0
2016-05-10T00:03:49.854Z,0
2016-05-10T00:04:50.153Z,0
2016-05-10T00:05:50.171Z,0
2016-05-10T00:06:50.174Z,0
2016-05-10T00:07:50.177Z,0
2016-05-10T00:08:50.179Z,0
2016-05-10T00:09:50.182Z,0
2016-05-10T00:10:50.185Z,0
2016-05-10T00:11:50.172Z,0
2016-05-10T00:12:50.061Z,0
2016-05-10T00:13:50.245Z,0
2016-05-10T00:14:50.243Z,0
2016-05-10T00:15:50.333Z,0
2016-05-10T00:16:50.377Z,0
2016-05-10T00:17:50.388Z,0
2016-05-10T00:18:50.420Z,0
2016-05-10T00:19:50.437Z,0
2016-05-10T00:20:50.455Z,0
2016-05-10T00:21:50.472Z,0
2016-05-10T00:22:50.187Z,0
2016-05-10T00:23:50.491Z,0
2016-05-10T00:24:50.344Z,0
2016-05-10T00:25:50.507Z,0
2016-05-10T00:26:50.500Z,0
2016-05-10T00:27:50.506Z,0
2016-05-10T00:28:50.511Z,0
2016-05-10T00:29:50.219Z,0
2016-05-10T00:30:50.535Z,0
2016-05-10T00:31:50.369Z,0
2016-05-10T00:32:50.528Z,0
2016-05-10T00:33:50.532Z,0
2016-05-10T00:34:50.535Z,0
2016-05-10T00:35:50.523Z,0
2016-05-10T00:36:50.526Z,0
2016-05-10T00:37:50.529Z,0
2016-05-10T00:38:50.377Z,0
2016-05-10T00:39:50.535Z,0
2016-05-10T00:40:50.538Z,0
2016-05-10T00:41:50.541Z,0
2016-05-10T00:42:50.529Z,0
2016-05-10T00:43:50.547Z,0
2016-05-10T00:44:50.455Z,0
2016-05-10T00:45:50.241Z,0
2016-05-10T00:46:50.571Z,0
2016-05-10T00:47:50.558Z,0
2016-05-10T00:48:50.546Z,0
2016-05-10T00:49:50.563Z,0
2016-05-10T00:50:50.566Z,0
2016-05-10T00:51:50.381Z,0
2016-05-10T00:52:50.556Z,0
2016-05-10T00:53:50.574Z,0
2016-05-10T00:54:50.249Z,0
2016-05-10T00:55:50.565Z,0
2016-05-10T00:56:50.567Z,0
2016-05-10T00:57:50.554Z,0
2016-05-10T00:58:50.572Z,0
2016-05-10T00:59:50.965Z,0
2016-05-10T01:00:50.562Z,0
2016-05-10T01:01:50.580Z,0
2016-05-10T01:02:50.426Z,0
2016-05-10T01:03:50.414Z,0
2016-05-10T01:04:50.432Z,0
2016-05-10T01:05:50.419Z,0
2016-05-10T01:06:50.422Z,0
2016-05-10T01:07:50.581Z,0
2016-05-10T01:08:50.583Z,0
2016-05-10T01:09:50.445Z,0
2016-05-10T01:10:50.417Z,0
2016-05-10T01:11:50.591Z,0
2016-05-10T01:12:50.594Z,0
2016-05-10T01:13:50.269Z,0
2016-05-10T01:14:51.319Z,0
2016-05-10T01:15:50.461Z,0
2016-05-10T01:16:50.589Z,0
2016-05-10T01:17:50.592Z,0
2016-05-10T01:18:50.579Z,0
2016-05-10T01:19:50.613Z,0
2016-05-10T01:20:50.600Z,0
2016-05-10T01:21:50.587Z,0
2016-05-10T01:22:50.605Z,0
2016-05-10T01:23:50.608Z,0
2016-05-10T01:24:50.596Z,0
2016-05-10T01:25:50.457Z,0
2016-05-10T01:26:50.444Z,0
2016-05-10T01:27:50.603Z,0
2016-05-10T01:28:50.621Z,0
2016-05-10T01:29:50.359Z,0
2016-05-10T01:30:50.454Z,0
2016-05-10T01:31:50.614Z,0
2016-05-10T01:32:50.617Z,0
2016-05-10T01:33:50.604Z,0
2016-05-10T01:34:50.606Z,0
2016-05-10T01:35:50.468Z,0
2016-05-10T01:36:50.612Z,0
2016-05-10T01:37:50.302Z,0
2016-05-10T01:38:50.617Z,0
2016-05-10T01:39:50.620Z,0
2016-05-10T01:40:50.623Z,0
2016-05-10T01:41:50.625Z,0
2016-05-10T01:42:50.644Z,0
2016-05-10T01:43:50.318Z,0
2016-05-10T01:44:50.774Z,0
2016-05-10T01:45:50.480Z,0
2016-05-10T01:46:50.483Z,0
2016-05-10T01:47:50.642Z,0
2016-05-10T01:48:50.628Z,0
2016-05-10T01:49:50.646Z,0
2016-05-10T01:50:50.649Z,0
2016-05-10T01:51:50.636Z,0
2016-05-10T01:52:50.639Z,0
2016-05-10T01:53:50.486Z,0
2016-05-10T01:54:50.488Z,0
2016-05-10T01:55:50.632Z,0
2016-05-10T01:56:50.665Z,0
2016-05-10T01:57:50.497Z,0
2016-05-10T01:58:50.640Z,0
2016-05-10T01:59:51.518Z,0
2016-05-10T02:00:50.489Z,0
2016-05-10T02:01:50.507Z,0
2016-05-10T02:02:50.494Z,0
2016-05-10T02:03:50.653Z,0
2016-05-10T02:04:50.656Z,0
2016-05-10T02:05:50.674Z,0
2016-05-10T02:06:50.677Z,0
2016-05-10T02:07:50.508Z,0
2016-05-10T02:08:50.681Z,0
2016-05-10T02:09:50.497Z,0
2016-05-10T02:10:50.656Z,0
2016-05-10T02:11:50.675Z,0
2016-05-10T02:12:50.678Z,0
2016-05-10T02:13:50.664Z,0
2016-05-10T02:14:51.214Z,0
2016-05-10T02:15:50.888Z,0
2016-05-10T02:16:50.688Z,0
2016-05-10T02:17:50.675Z,0
2016-05-10T02:18:50.678Z,0
2016-05-10T02:19:50.524Z,0
2016-05-10T02:20:50.683Z,0
2016-05-10T02:21:50.530Z,0
2016-05-10T02:22:50.516Z,0
2016-05-10T02:23:50.535Z,0
2016-05-10T02:24:50.522Z,0
2016-05-10T02:25:50.510Z,0
2016-05-10T02:26:50.699Z,0
2016-05-10T02:27:50.546Z,0
2016-05-10T02:28:50.674Z,0
2016-05-10T02:29:52.285Z,0
2016-05-10T02:30:50.695Z,0
2016-05-10T02:31:50.697Z,0
2016-05-10T02:32:50.684Z,0
2016-05-10T02:33:50.703Z,0
2016-05-10T02:34:50.377Z,0
2016-05-10T02:35:50.693Z,0
2016-05-10T02:36:50.695Z,0
2016-05-10T02:37:50.697Z,0
2016-05-10T02:38:50.716Z,0
2016-05-10T02:39:50.703Z,0
2016-05-10T02:40:50.706Z,0
2016-05-10T02:41:50.709Z,0
2016-05-10T02:42:50.711Z,0
2016-05-10T02:43:50.542Z,0
2016-05-10T02:44:50.732Z,0
2016-05-10T02:45:50.704Z,0
2016-05-10T02:46:50.706Z,0
2016-05-10T02:47:50.708Z,0
2016-05-10T02:48:50.556Z,0
2016-05-10T02:49:50.558Z,0
2016-05-10T02:50:50.716Z,0
2016-05-10T02:51:50.767Z,0
2016-05-10T02:52:50.722Z,0
2016-05-10T02:53:50.725Z,0
2016-05-10T02:54:50.744Z,0
2016-05-10T02:55:50.574Z,0
2016-05-10T02:56:50.561Z,0
2016-05-10T02:57:50.720Z,0
2016-05-10T02:58:50.723Z,0
2016-05-10T02:59:50.726Z,0
2016-05-10T03:00:50.571Z,0
2016-05-10T03:01:50.732Z,0
2016-05-10T03:02:50.577Z,0
2016-05-10T03:03:50.737Z,0
2016-05-10T03:04:50.739Z,0
2016-05-10T03:05:50.742Z,0
2016-05-10T03:06:50.588Z,0
2016-05-10T03:07:50.825Z,0
2016-05-10T03:08:50.750Z,0
2016-05-10T03:09:50.737Z,0
2016-05-10T03:10:50.723Z,0
2016-05-10T03:11:50.773Z,0
2016-05-10T03:12:50.745Z,0
2016-05-10T03:13:50.748Z,0
2016-05-10T03:14:50.469Z,0
2016-05-10T03:15:50.753Z,0
2016-05-10T03:16:50.755Z,0
2016-05-10T03:17:50.759Z,0
2016-05-10T03:18:50.745Z,0
2016-05-10T03:19:50.747Z,0
2016-05-10T03:20:50.767Z,0
2016-05-10T03:21:50.753Z,0
2016-05-10T03:22:50.755Z,0
2016-05-10T03:23:50.758Z,0
2016-05-10T03:24:50.746Z,0
2016-05-10T03:25:50.764Z,0
2016-05-10T03:26:50.783Z,0
2016-05-10T03:27:50.754Z,0
2016-05-10T03:28:50.772Z,0
2016-05-10T03:29:51.197Z,0
2016-05-10T03:30:50.762Z,0
2016-05-10T03:31:50.765Z,4
2016-05-10T03:32:50.768Z,4
2016-05-10T03:33:50.770Z,0
2016-05-10T03:34:50.757Z,4
2016-05-10T03:35:50.760Z,4
2016-05-10T03:36:50.622Z,4
2016-05-10T03:37:50.782Z,4
2016-05-10T03:38:50.767Z,8
2016-05-10T03:39:50.786Z,8
2016-05-10T03:40:50.773Z,8
2016-05-10T03:41:50.620Z,12
2016-05-10T03:42:50.779Z,12
2016-05-10T03:43:50.781Z,12
2016-05-10T03:44:52.503Z,16
2016-05-10T03:45:50.787Z,16
2016-05-10T03:46:50.789Z,20
2016-05-10T03:47:50.777Z,20
2016-05-10T03:48:50.780Z,24
2016-05-10T03:49:50.642Z,28
2016-05-10T03:50:50.769Z,32
2016-05-10T03:51:50.787Z,28
2016-05-10T03:52:50.790Z,36
2016-05-10T03:53:50.808Z,36
2016-05-10T03:54:50.655Z,40
2016-05-10T03:55:50.658Z,44
2016-05-10T03:56:50.786Z,48
2016-05-10T03:57:50.788Z,52
2016-05-10T03:58:50.321Z,56
2016-05-10T03:59:50.668Z,60
2016-05-10T04:00:50.796Z,68
2016-05-10T04:01:50.799Z,72
2016-05-10T04:02:50.785Z,80
2016-05-10T04:03:50.648Z,84
2016-05-10T04:04:50.806Z,96
2016-05-10T04:05:50.809Z,100
2016-05-10T04:06:50.812Z,112
2016-05-10T04:07:50.815Z,124
2016-05-10T04:08:50.818Z,132
2016-05-10T04:09:50.820Z,144
2016-05-10T04:10:50.807Z,160
2016-05-10T04:11:50.810Z,168
2016-05-10T04:12:50.656Z,180
2016-05-10T04:13:50.815Z,188
2016-05-10T04:14:51.615Z,196
2016-05-10T04:15:50.820Z,204
2016-05-10T04:16:50.823Z,212
2016-05-10T04:17:50.811Z,220
2016-05-10T04:18:50.500Z,236
2016-05-10T04:19:50.519Z,248
2016-05-10T04:20:50.818Z,260
2016-05-10T04:21:50.664Z,280
2016-05-10T04:22:50.824Z,296
2016-05-10T04:23:50.827Z,312
2016-05-10T04:24:50.830Z,332
2016-05-10T04:25:50.833Z,352
2016-05-10T04:26:50.835Z,368
2016-05-10T04:27:50.665Z,388
2016-05-10T04:28:50.840Z,412
2016-05-10T04:29:51.686Z,432
2016-05-10T04:30:50.830Z,456
2016-05-10T04:31:50.677Z,484
2016-05-10T04:32:50.835Z,512
2016-05-10T04:33:50.681Z,548
2016-05-10T04:34:50.685Z,580
2016-05-10T04:35:50.843Z,616
2016-05-10T04:36:50.830Z,652
2016-05-10T04:37:50.693Z,692
2016-05-10T04:38:50.851Z,732
2016-05-10T04:39:50.838Z,768
2016-05-10T04:40:50.840Z,804
2016-05-10T04:41:50.687Z,844
2016-05-10T04:42:50.846Z,880
2016-05-10T04:43:50.849Z,916
2016-05-10T04:44:51.227Z,952
2016-05-10T04:45:50.854Z,984
2016-05-10T04:46:50.856Z,1020
2016-05-10T04:47:50.875Z,1052
2016-05-10T04:48:50.862Z,1080
2016-05-10T04:49:50.850Z,1104
2016-05-10T04:50:50.868Z,1128
2016-05-10T04:51:50.542Z,1144
2016-05-10T04:52:50.857Z,1160
2016-05-10T04:53:50.688Z,1172
2016-05-10T04:54:50.707Z,1184
2016-05-10T04:55:50.850Z,1192
2016-05-10T04:56:50.868Z,1200
2016-05-10T04:57:50.856Z,1212
2016-05-10T04:58:50.858Z,1224
2016-05-10T04:59:50.986Z,1236
2016-05-10T05:00:50.708Z,1248
2016-05-10T05:01:50.882Z,1264
2016-05-10T05:02:50.713Z,1276
2016-05-10T05:03:50.715Z,1292
2016-05-10T05:04:50.874Z,1304
2016-05-10T05:05:50.565Z,1320
2016-05-10T05:06:50.879Z,1340
2016-05-10T05:07:50.570Z,1360
2016-05-10T05:08:50.729Z,1384
2016-05-10T05:09:50.575Z,1400
2016-05-10T05:10:50.751Z,1412
2016-05-10T05:11:50.893Z,1424
2016-05-10T05:12:50.880Z,1432
2016-05-10T05:13:50.884Z,1436
2016-05-10T05:14:51.120Z,1448
2016-05-10T05:15:50.888Z,1452
2016-05-10T05:16:50.579Z,1460
2016-05-10T05:17:50.894Z,1464
2016-05-10T05:18:50.568Z,1472
2016-05-10T05:19:50.883Z,1484
2016-05-10T05:20:50.886Z,1496
2016-05-10T05:21:50.905Z,1508
2016-05-10T05:22:50.578Z,1528
2016-05-10T05:23:50.597Z,1564
2016-05-10T05:24:50.897Z,1604
2016-05-10T05:25:50.900Z,1664
2016-05-10T05:26:50.902Z,1732
2016-05-10T05:27:50.905Z,1816
2016-05-10T05:28:50.907Z,1900
2016-05-10T05:29:51.644Z,1988
2016-05-10T05:30:50.913Z,2080
2016-05-10T05:31:50.899Z,2184
2016-05-10T05:32:50.935Z,2292
2016-05-10T05:33:50.922Z,2412
2016-05-10T05:34:50.752Z,2532
2016-05-10T05:35:50.754Z,2652
2016-05-10T05:36:50.929Z,2772
2016-05-10T05:37:50.776Z,2892
2016-05-10T05:38:50.778Z,3012
2016-05-10T05:39:50.921Z,3128
2016-05-10T05:40:50.924Z,3248
2016-05-10T05:41:50.755Z,3356
2016-05-10T05:42:50.617Z,3460
2016-05-10T05:43:50.917Z,3560
2016-05-10T05:44:51.685Z,3664
2016-05-10T05:45:50.922Z,3768
2016-05-10T05:46:50.768Z,3892
2016-05-10T05:47:50.787Z,4020
2016-05-10T05:48:50.773Z,4184
2016-05-10T05:49:50.777Z,4360
2016-05-10T05:50:50.795Z,4568
2016-05-10T05:51:50.938Z,4856
2016-05-10T05:52:50.800Z,5140
2016-05-10T05:53:50.787Z,5540
2016-05-10T05:54:50.930Z,5864
2016-05-10T05:55:50.777Z,6112
2016-05-10T05:56:50.952Z,6036
2016-05-10T05:57:50.938Z,5740
2016-05-10T05:58:50.941Z,5476
2016-05-10T05:59:50.835Z,5740
2016-05-10T06:00:50.978Z,5952
2016-05-10T06:01:50.980Z,5892
2016-05-10T06:02:51.452Z,5976
2016-05-10T06:03:50.986Z,6060
2016-05-10T06:04:50.958Z,6236
2016-05-10T06:05:50.960Z,6492
2016-05-10T06:06:50.963Z,6888
2016-05-10T06:07:50.825Z,8264
2016-05-10T06:08:50.969Z,9636
2016-05-10T06:09:50.986Z,9452
2016-05-10T06:10:50.973Z,9704
2016-05-10T06:11:50.820Z,9784
2016-05-10T06:12:50.823Z,13860
2016-05-10T06:13:50.982Z,9116
2016-05-10T06:14:52.094Z,6720
2016-05-10T06:15:51.003Z,6532
2016-05-10T06:16:50.989Z,6456
2016-05-10T06:17:50.992Z,6456
2016-05-10T06:18:50.839Z,6564
2016-05-10T06:19:50.998Z,7296
2016-05-10T06:20:51.017Z,6936
2016-05-10T06:21:51.004Z,7740
2016-05-10T06:22:51.006Z,8792
2016-05-10T06:23:50.853Z,8220
2016-05-10T06:24:51.089Z,7788
2016-05-10T06:25:50.998Z,8968
2016-05-10T06:26:50.875Z,8576
2016-05-10T06:27:50.723Z,8908
2016-05-10T06:28:51.038Z,9380
2016-05-10T06:29:50.884Z,8228
2016-05-10T06:30:50.871Z,9248
2016-05-10T06:31:50.875Z,9088
2016-05-10T06:32:50.876Z,8904
2016-05-10T06:33:51.051Z,8796
2016-05-10T06:34:51.038Z,8392
2016-05-10T06:35:51.041Z,8184
2016-05-10T06:36:51.043Z,7884
2016-05-10T06:37:51.063Z,7888
2016-05-10T06:38:51.065Z,7960
2016-05-10T06:39:50.910Z,7836
2016-05-10T06:40:51.054Z,7780
2016-05-10T06:41:51.073Z,8040
2016-05-10T06:42:50.904Z,7832
2016-05-10T06:43:51.063Z,8352
2016-05-10T06:44:51.112Z,8536
2016-05-10T06:45:51.084Z,8636
2016-05-10T06:46:51.071Z,8716
2016-05-10T06:47:50.917Z,8832
2016-05-10T06:48:50.920Z,8600
2016-05-10T06:49:50.923Z,8852
2016-05-10T06:50:51.097Z,8908
2016-05-10T06:51:51.084Z,9032
2016-05-10T06:52:51.087Z,9136
2016-05-10T06:53:51.106Z,9408
2016-05-10T06:54:51.108Z,9552
2016-05-10T06:55:51.125Z,9792
2016-05-10T06:56:50.972Z,10068
2016-05-10T06:57:51.116Z,10228
2016-05-10T06:58:51.228Z,10600
2016-05-10T06:59:51.714Z,11164
2016-05-10T07:00:50.967Z,11188
2016-05-10T07:01:50.969Z,11340
2016-05-10T07:02:51.130Z,11368
2016-05-10T07:03:50.819Z,10880
2016-05-10T07:04:50.822Z,10248
2016-05-10T07:05:51.012Z,9932
2016-05-10T07:06:51.155Z,9432
2016-05-10T07:07:51.002Z,10696
2016-05-10T07:08:51.160Z,10600
2016-05-10T07:09:50.992Z,10656
2016-05-10T07:10:51.151Z,10648
2016-05-10T07:11:51.168Z,10868
2016-05-10T07:12:51.015Z,10864
2016-05-10T07:13:51.018Z,10636
2016-05-10T07:14:51.052Z,10620
2016-05-10T07:15:51.180Z,10584
2016-05-10T07:16:51.182Z,10040
2016-05-10T07:17:51.029Z,10280
2016-05-10T07:18:51.187Z,10424
2016-05-10T07:19:51.207Z,10624
2016-05-10T07:20:51.037Z,10792
2016-05-10T07:21:51.211Z,10688
2016-05-10T07:22:51.214Z,10300
2016-05-10T07:23:51.217Z,10176
2016-05-10T07:24:51.220Z,10096
2016-05-10T07:25:51.223Z,9628
2016-05-10T07:26:51.084Z,8740
2016-05-10T07:27:51.228Z,8432
2016-05-10T07:28:51.246Z,8028
2016-05-10T07:29:51.499Z,7716
2016-05-10T07:30:51.266Z,7384
2016-05-10T07:31:51.238Z,7396
2016-05-10T07:32:51.100Z,7856
2016-05-10T07:33:51.260Z,8100
2016-05-10T07:34:51.263Z,8304
2016-05-10T07:35:51.265Z,8372
2016-05-10T07:36:51.268Z,7992
2016-05-10T07:37:51.285Z,7948
2016-05-10T07:38:51.116Z,7920
2016-05-10T07:39:51.291Z,8028
2016-05-10T07:40:51.293Z,8200
2016-05-10T07:41:51.312Z,8388
2016-05-10T07:42:51.299Z,8476
2016-05-10T07:43:51.302Z,8780
2016-05-10T07:44:51.008Z,8592
2016-05-10T07:45:51.448Z,9020
2016-05-10T07:46:51.326Z,8832
2016-05-10T07:47:51.359Z,9336
2016-05-10T07:48:52.143Z,8928
2016-05-10T07:49:51.318Z,8832
2016-05-10T07:50:51.321Z,8772
2016-05-10T07:51:51.323Z,9032
2016-05-10T07:52:51.326Z,9028
2016-05-10T07:53:51.345Z,9032
2016-05-10T07:54:51.192Z,9120
2016-05-10T07:55:51.350Z,8984
2016-05-10T07:56:51.353Z,9216
2016-05-10T07:57:51.464Z,9080
2016-05-10T07:58:51.217Z,9016
2016-05-10T07:59:51.939Z,9020
2016-05-10T08:00:51.378Z,9048
2016-05-10T08:01:51.225Z,9060
2016-05-10T08:02:51.384Z,9200
2016-05-10T08:03:51.386Z,9224
2016-05-10T08:04:51.421Z,9528
2016-05-10T08:05:51.392Z,9764
2016-05-10T08:06:51.239Z,10096
2016-05-10T08:07:51.413Z,10516
2016-05-10T08:08:51.416Z,10692
2016-05-10T08:09:51.263Z,10988
2016-05-10T08:10:51.265Z,10840
2016-05-10T08:11:51.424Z,11032
2016-05-10T08:12:51.271Z,11392
2016-05-10T08:13:51.429Z,11764
2016-05-10T08:14:51.541Z,12292
2016-05-10T08:15:51.435Z,12480
2016-05-10T08:16:51.437Z,11996
2016-05-10T08:17:51.440Z,13608
2016-05-10T08:18:51.459Z,15700
2016-05-10T08:19:51.321Z,16172
2016-05-10T08:20:51.464Z,16752
2016-05-10T08:21:51.467Z,18360
2016-05-10T08:22:51.173Z,19360
2016-05-10T08:23:51.473Z,17476
2016-05-10T08:24:51.318Z,15084
2016-05-10T08:25:51.492Z,13268
2016-05-10T08:26:51.542Z,12792
2016-05-10T08:27:51.342Z,12528
2016-05-10T08:28:51.501Z,12484
2016-05-10T08:29:55.128Z,11800
2016-05-10T08:30:51.350Z,12176
2016-05-10T08:31:51.603Z,11936
2016-05-10T08:32:51.355Z,11504
2016-05-10T08:33:51.531Z,11820
2016-05-10T08:34:51.533Z,11900
2016-05-10T08:35:51.551Z,11404
2016-05-10T08:36:51.538Z,11384
2016-05-10T08:37:51.557Z,10988
2016-05-10T08:38:51.543Z,10924
2016-05-10T08:39:51.562Z,10716
2016-05-10T08:40:51.408Z,10764
2016-05-10T08:41:51.551Z,10924
2016-05-10T08:42:51.570Z,11240
2016-05-10T08:43:51.432Z,11496
2016-05-10T08:44:51.982Z,11456
2016-05-10T08:45:51.593Z,11404
2016-05-10T08:46:51.596Z,11176
2016-05-10T08:47:51.615Z,10868
2016-05-10T08:48:51.602Z,10440
2016-05-10T08:49:51.464Z,9972
2016-05-10T08:50:51.623Z,9588
2016-05-10T08:51:51.470Z,9224
2016-05-10T08:52:51.629Z,8872
2016-05-10T08:53:51.490Z,8728
2016-05-10T08:54:51.493Z,8640
2016-05-10T08:55:51.637Z,8836
2016-05-10T08:56:51.639Z,8780
2016-05-10T08:57:51.657Z,8788
2016-05-10T08:58:51.659Z,8860
2016-05-10T08:59:51.944Z,8904
2016-05-10T09:00:51.509Z,8756
2016-05-10T09:01:51.527Z,8428
2016-05-10T09:02:51.514Z,8204
2016-05-10T09:03:51.688Z,8052
2016-05-10T09:04:51.691Z,8004
2016-05-10T09:05:51.695Z,8120
2016-05-10T09:06:51.713Z,8268
2016-05-10T09:07:51.559Z,8792
2016-05-10T09:08:51.719Z,9252
2016-05-10T09:09:51.721Z,9896
2016-05-10T09:10:51.724Z,10476
2016-05-10T09:12:05.289Z,11136
2016-05-10T09:12:51.744Z,11436
2016-05-10T09:13:51.466Z,11336
2016-05-10T09:14:51.594Z,11416
2016-05-10T09:15:53.393Z,11408
2016-05-10T09:16:51.896Z,11380
2016-05-10T09:17:51.602Z,11312
2016-05-10T09:18:51.485Z,11060
2016-05-10T09:19:51.858Z,10788
2016-05-10T09:20:51.746Z,10368
2016-05-10T09:21:51.962Z,10056
2016-05-10T09:22:51.834Z,9744
2016-05-10T09:23:52.010Z,9368
2016-05-10T09:24:52.044Z,9024
2016-05-10T09:25:52.062Z,8732
2016-05-10T09:26:51.908Z,8476
2016-05-10T09:27:52.143Z,8444
2016-05-10T09:28:51.965Z,8472
2016-05-10T09:29:51.958Z,8524
2016-05-10T09:30:51.809Z,8656
2016-05-10T09:31:51.974Z,8524
2016-05-10T09:32:52.138Z,8544
2016-05-10T09:33:52.159Z,8400
2016-05-10T09:34:52.163Z,8320
2016-05-10T09:35:52.027Z,8160
2016-05-10T09:36:52.016Z,7996
2016-05-10T09:37:52.177Z,7832
2016-05-10T09:38:52.196Z,7624
2016-05-10T09:39:52.184Z,7412
2016-05-10T09:40:52.187Z,7224
2016-05-10T09:41:52.207Z,7056
2016-05-10T09:42:52.211Z,6896
2016-05-10T09:43:51.900Z,6776
2016-05-10T09:44:52.201Z,6656
2016-05-10T09:45:52.219Z,6528
2016-05-10T09:46:52.067Z,6392
2016-05-10T09:47:52.101Z,6264
2016-05-10T09:48:52.243Z,6152
2016-05-10T09:49:52.246Z,6060
2016-05-10T09:50:52.233Z,5972
2016-05-10T09:51:52.251Z,5892
2016-05-10T09:52:52.270Z,5804
2016-05-10T09:53:52.257Z,5736
2016-05-10T09:54:52.291Z,5680
2016-05-10T09:55:52.294Z,5652
2016-05-10T09:56:52.281Z,5624
2016-05-10T09:57:52.283Z,5640
2016-05-10T09:58:52.303Z,5680
2016-05-10T09:59:52.883Z,5744
2016-05-10T10:00:52.292Z,5840
2016-05-10T10:01:52.310Z,5936
2016-05-10T10:02:52.297Z,6032
2016-05-10T10:03:52.331Z,6160
2016-05-10T10:04:52.161Z,6304
2016-05-10T10:05:52.321Z,6444
2016-05-10T10:06:52.355Z,6528
2016-05-10T10:07:52.341Z,6552
2016-05-10T10:08:52.330Z,6584
2016-05-10T10:09:52.347Z,6628
2016-05-10T10:10:52.350Z,6684
2016-05-10T10:11:52.353Z,6744
2016-05-10T10:12:52.355Z,6824
2016-05-10T10:13:52.374Z,7004
2016-05-10T10:14:52.548Z,7264
2016-05-10T10:15:52.223Z,7572
2016-05-10T10:16:52.382Z,7864
2016-05-10T10:17:52.400Z,8116
2016-05-10T10:18:52.215Z,8300
2016-05-10T10:19:52.389Z,8400
2016-05-10T10:20:52.237Z,8456
2016-05-10T10:21:52.411Z,8468
2016-05-10T10:22:52.414Z,8444
2016-05-10T10:23:52.275Z,8392
2016-05-10T10:24:52.420Z,8288
2016-05-10T10:25:52.265Z,8168
2016-05-10T10:26:52.268Z,8100
2016-05-10T10:27:52.428Z,8112
2016-05-10T10:28:52.133Z,8132
2016-05-10T10:29:52.776Z,8188
2016-05-10T10:30:52.278Z,8232
2016-05-10T10:31:52.453Z,8276
2016-05-10T10:32:52.316Z,8368
2016-05-10T10:33:52.443Z,8524
2016-05-10T10:34:52.461Z,8732
2016-05-10T10:35:52.308Z,8944
2016-05-10T10:36:52.466Z,9144
2016-05-10T10:37:52.485Z,9336
2016-05-10T10:38:52.488Z,9532
2016-05-10T10:39:52.490Z,9752
2016-05-10T10:40:52.478Z,9984
2016-05-10T10:41:52.340Z,10180
2016-05-10T10:42:52.499Z,10304
2016-05-10T10:43:52.502Z,10348
2016-05-10T10:44:53.394Z,10340
2016-05-10T10:45:52.538Z,10312
2016-05-10T10:46:52.525Z,10296
2016-05-10T10:47:52.527Z,10368
2016-05-10T10:48:52.545Z,10488
2016-05-10T10:49:52.549Z,10564
2016-05-10T10:50:52.224Z,10580
2016-05-10T10:51:52.538Z,10600
2016-05-10T10:52:52.573Z,10752
2016-05-10T10:53:52.247Z,10916
2016-05-10T10:54:52.390Z,11164
2016-05-10T10:55:52.595Z,11340
2016-05-10T10:56:52.411Z,11412
2016-05-10T10:57:52.586Z,11412
2016-05-10T10:58:52.589Z,11328
2016-05-10T10:59:52.732Z,11168
2016-05-10T11:00:52.578Z,11080
2016-05-10T11:01:52.597Z,11080
2016-05-10T11:02:52.631Z,11092
2016-05-10T11:03:52.603Z,11072
2016-05-10T11:04:52.605Z,11036
2016-05-10T11:05:52.608Z,10900
2016-05-10T11:06:52.610Z,10664
2016-05-10T11:07:52.628Z,10396
2016-05-10T11:08:52.630Z,10144
2016-05-10T11:09:52.477Z,9916
2016-05-10T11:10:52.480Z,9752
2016-05-10T11:11:52.639Z,9616
2016-05-10T11:12:52.485Z,9508
2016-05-10T11:13:52.644Z,9448
2016-05-10T11:14:52.663Z,9456
2016-05-10T11:15:52.665Z,9464
2016-05-10T11:16:52.512Z,9476
2016-05-10T11:17:52.671Z,9468
2016-05-10T11:18:52.533Z,9436
2016-05-10T11:19:52.520Z,9396
2016-05-10T11:20:52.538Z,9340
2016-05-10T11:21:52.698Z,9296
2016-05-10T11:22:52.701Z,9296
2016-05-10T11:23:52.703Z,9328
2016-05-10T11:24:52.721Z,9356
2016-05-10T11:25:52.568Z,9352
2016-05-10T11:26:52.711Z,9332
2016-05-10T11:27:52.714Z,9296
2016-05-10T11:28:52.560Z,9272
2016-05-10T11:29:53.109Z,9276
2016-05-10T11:30:52.737Z,9284
2016-05-10T11:31:52.755Z,9300
2016-05-10T11:32:52.742Z,9332
2016-05-10T11:33:52.760Z,9360
2016-05-10T11:34:52.591Z,9400
2016-05-10T11:35:52.766Z,9452
2016-05-10T11:36:52.628Z,9532
2016-05-10T11:37:52.771Z,9592
2016-05-10T11:38:52.789Z,9636
2016-05-10T11:39:52.792Z,9652
2016-05-10T11:40:52.795Z,9628
2016-05-10T11:41:52.798Z,9568
2016-05-10T11:42:52.800Z,9460
2016-05-10T11:43:52.802Z,9328
2016-05-10T11:44:54.260Z,9192
2016-05-10T11:45:52.669Z,9088
2016-05-10T11:46:52.827Z,9036
2016-05-10T11:47:52.830Z,9044
2016-05-10T11:48:52.832Z,9072
2016-05-10T11:49:52.694Z,9096
2016-05-10T11:50:52.838Z,9132
2016-05-10T11:51:52.840Z,9172
2016-05-10T11:52:52.687Z,9212
2016-05-10T11:53:52.846Z,9216
2016-05-10T11:54:52.707Z,9200
2016-05-10T11:55:52.882Z,9164
2016-05-10T11:56:52.901Z,9112
2016-05-10T11:57:52.887Z,9032
2016-05-10T11:58:52.718Z,8952
2016-05-10T11:59:53.753Z,8888
2016-05-10T12:00:52.755Z,8840
2016-05-10T12:01:52.898Z,8792
2016-05-10T12:02:52.900Z,8764
2016-05-10T12:03:52.747Z,8764
2016-05-10T12:04:52.922Z,8840
2016-05-10T12:05:52.925Z,8880
2016-05-10T12:06:52.944Z,8884
2016-05-10T12:07:52.930Z,8792
2016-05-10T12:08:52.933Z,8700
2016-05-10T12:09:52.795Z,8652
2016-05-10T12:10:52.798Z,8636
2016-05-10T12:11:52.972Z,8548
2016-05-10T12:12:52.960Z,8444
2016-05-10T12:13:52.978Z,8336
2016-05-10T12:14:52.683Z,8236
2016-05-10T12:15:52.811Z,8108
2016-05-10T12:16:53.002Z,7948
2016-05-10T12:17:52.816Z,7896
2016-05-10T12:18:52.851Z,8008
2016-05-10T12:19:52.994Z,8112
2016-05-10T12:20:53.012Z,8096
2016-05-10T12:21:52.999Z,7976
2016-05-10T12:22:52.893Z,7832
2016-05-10T12:24:23.379Z,7596
2016-05-10T12:24:52.868Z,7464
2016-05-10T12:25:53.026Z,7068
2016-05-10T12:26:53.012Z,6696
2016-05-10T12:27:53.079Z,6568
2016-05-10T12:28:53.190Z,6616
2016-05-10T12:29:53.084Z,6684
2016-05-10T12:30:53.055Z,6684
2016-05-10T12:31:52.931Z,6648
2016-05-10T12:32:53.060Z,6636
2016-05-10T12:33:52.923Z,6684
2016-05-10T12:34:53.081Z,6780
2016-05-10T12:35:53.084Z,6880
2016-05-10T12:36:53.087Z,6960
2016-05-10T12:37:52.777Z,6956
2016-05-10T12:38:52.936Z,6864
2016-05-10T12:39:53.094Z,6760
2016-05-10T12:40:52.941Z,6668
2016-05-10T12:41:53.131Z,6620
2016-05-10T12:42:52.947Z,6604
2016-05-10T12:43:53.121Z,6540
2016-05-10T12:44:53.124Z,6448
2016-05-10T12:45:53.126Z,6408
2016-05-10T12:46:53.302Z,6424
2016-05-10T12:47:53.147Z,6496
2016-05-10T12:48:53.150Z,6608
2016-05-10T12:49:52.980Z,6764
2016-05-10T12:50:53.155Z,6940
2016-05-10T12:51:53.002Z,7048
2016-05-10T12:52:53.161Z,7088
2016-05-10T12:53:53.179Z,7168
2016-05-10T12:54:53.181Z,7208
2016-05-10T12:55:53.029Z,7080
2016-05-10T12:56:53.187Z,7108
2016-05-10T12:57:53.190Z,7116
2016-05-10T12:58:53.036Z,7072
2016-05-10T12:59:53.039Z,7056
2016-05-10T13:00:53.198Z,7168
2016-05-10T13:01:52.904Z,7328
2016-05-10T13:02:53.204Z,7512
2016-05-10T13:03:52.909Z,7568
2016-05-10T13:04:53.225Z,7504
2016-05-10T13:05:52.915Z,7468
2016-05-10T13:06:52.917Z,7436
2016-05-10T13:07:53.248Z,7420
2016-05-10T13:08:53.094Z,7436
2016-05-10T13:09:53.253Z,7460
2016-05-10T13:10:53.100Z,7456
2016-05-10T13:11:53.243Z,7444
2016-05-10T13:12:53.261Z,7368
2016-05-10T13:13:52.983Z,7300
2016-05-10T13:14:53.266Z,7308
2016-05-10T13:15:53.300Z,7288
2016-05-10T13:16:53.132Z,7316
2016-05-10T13:17:53.135Z,7436
2016-05-10T13:18:52.980Z,7576
2016-05-10T13:19:53.140Z,7624
2016-05-10T13:20:53.314Z,7724
2016-05-10T13:21:53.161Z,7764
2016-05-10T13:22:53.319Z,7716
2016-05-10T13:23:53.321Z,7892
2016-05-10T13:24:53.185Z,8060
2016-05-10T13:25:53.327Z,7952
2016-05-10T13:26:53.174Z,7788
2016-05-10T13:27:53.176Z,7768
2016-05-10T13:28:53.351Z,7644
2016-05-10T13:29:53.198Z,7464
2016-05-10T13:30:53.466Z,7184
2016-05-10T13:31:53.343Z,7084
2016-05-10T13:32:53.362Z,7236
2016-05-10T13:33:53.412Z,7160
2016-05-10T13:34:53.398Z,7024
2016-05-10T13:35:53.214Z,6892
2016-05-10T13:36:53.389Z,6776
2016-05-10T13:37:53.392Z,6736
2016-05-10T13:38:53.409Z,6784
2016-05-10T13:39:53.396Z,6956